»·PEaware :: N333ZS KSBA-KMRY

N333ZS :: KSBA-KMRY

FLIGHT INFORMATION

Flight Status: Arrived
Operator: Privately registered:
United States
More flights under this callsign
Pilot: Judd H. (29974)
Aircraft: CESSNA 182 SKYLANE
(C182)
More flights by this aircraft type
Origin: KSBA Santa Barbara Mun
United States
Destination: KMRY Monterey Peninsula
United States
More flights between these airports :: More routes between these airports
Route: GVO V27 BSR
File this flight plan on PilotEdge
Remarks:
Altitude:
(Current/Filed)
10,000ft
Speed:
(Current/Filed)
120kts
Departed: 07-Oct-20 12:54 PM
Arrived: 07-Oct-20 02:29 PM
Distance/Time
Traveled:
163nm/1:35
Distance/Time
To Go:
Arrived

Flight Plot

Page will automatically refresh every two minutes.


Map Options




Map Legend


Flown Route
Filed Route
Departure Airport
Arrival Airport
Navaid (VOR, NDB)
Fix

Horizontal Profiles

Position Reports

Time Latitude Longitude Heading Altitude Ground
Speed
07-Oct-20 12:36 34.423497 -119.835824 163 13ft 0kts
07-Oct-20 12:37 34.423496 -119.835823 163 13ft 0kts
07-Oct-20 12:38 34.423494 -119.835823 163 13ft 0kts
07-Oct-20 12:39 34.423493 -119.835822 163 13ft 0kts
07-Oct-20 12:40 34.423492 -119.835822 163 13ft 0kts
07-Oct-20 12:41 34.423491 -119.835822 163 13ft 0kts
07-Oct-20 12:42 34.423490 -119.835821 163 13ft 0kts
07-Oct-20 12:43 34.423489 -119.835821 163 13ft 0kts
07-Oct-20 12:44 34.423488 -119.835821 163 13ft 0kts
07-Oct-20 12:45 34.423487 -119.835820 163 13ft 0kts
07-Oct-20 12:46 34.423486 -119.835820 163 13ft 0kts
07-Oct-20 12:47 34.423215 -119.836333 260 13ft 10kts
07-Oct-20 12:48 34.426941 -119.838384 345 13ft 8kts
07-Oct-20 12:49 34.430662 -119.839680 276 13ft 1kts
07-Oct-20 12:50 34.430656 -119.839800 255 13ft 0kts
07-Oct-20 12:51 34.430655 -119.839803 255 13ft 0kts
07-Oct-20 12:52 34.430654 -119.839807 255 13ft 0kts
07-Oct-20 12:53 34.426816 -119.839133 161 24ft 75kts
07-Oct-20 12:54 34.398853 -119.832334 168 652ft 111kts
07-Oct-20 12:55 34.368334 -119.824699 169 1411ft 112kts
07-Oct-20 12:56 34.344376 -119.837299 258 2147ft 115kts
07-Oct-20 12:57 34.340290 -119.876058 260 2847ft 116kts
07-Oct-20 12:58 34.335242 -119.914435 261 3536ft 117kts
07-Oct-20 12:59 34.330826 -119.953573 263 4164ft 118kts
07-Oct-20 13:00 34.326869 -119.992773 262 4794ft 117kts
07-Oct-20 13:01 34.322999 -120.032075 264 5399ft 118kts
07-Oct-20 13:02 34.318891 -120.071245 265 6022ft 114kts
07-Oct-20 13:03 34.315505 -120.109663 264 6986ft 117kts
07-Oct-20 13:04 34.318450 -120.146460 323 7508ft 112kts
07-Oct-20 13:05 34.344885 -120.166857 332 8006ft 111kts
07-Oct-20 13:06 34.371118 -120.185486 331 8553ft 109kts
07-Oct-20 13:07 34.397385 -120.202862 332 9128ft 103kts
07-Oct-20 13:08 34.423414 -120.219279 335 9652ft 103kts
07-Oct-20 13:09 34.450086 -120.234368 335 10076ft 110kts
07-Oct-20 13:10 34.480230 -120.255228 330 10085ft 135kts
07-Oct-20 13:11 34.513349 -120.278919 330 10089ft 139kts
07-Oct-20 13:12 34.546976 -120.303032 330 10090ft 140kts
07-Oct-20 13:13 34.580667 -120.327281 330 10090ft 140kts
07-Oct-20 13:14 34.614541 -120.350788 333 10089ft 140kts
07-Oct-20 13:15 34.648972 -120.373187 333 10090ft 140kts
07-Oct-20 13:16 34.683517 -120.395683 333 10090ft 140kts
07-Oct-20 13:17 34.718366 -120.416724 335 10090ft 140kts
07-Oct-20 13:18 34.754637 -120.438418 337 10061ft 144kts
07-Oct-20 13:19 34.788344 -120.460188 333 10023ft 133kts
07-Oct-20 13:20 34.820564 -120.481443 333 10019ft 130kts
07-Oct-20 13:21 34.852355 -120.502680 333 10041ft 130kts
07-Oct-20 13:22 34.884393 -120.523964 333 10046ft 131kts
07-Oct-20 13:23 34.916664 -120.544754 337 10048ft 131kts
07-Oct-20 13:25 34.949896 -120.563175 336 10050ft 131kts
07-Oct-20 13:26 34.983017 -120.581431 335 10050ft 130kts
07-Oct-20 13:27 35.015108 -120.602573 333 10050ft 131kts
07-Oct-20 13:28 35.047088 -120.623690 333 10050ft 130kts
07-Oct-20 13:29 35.078698 -120.645857 331 10049ft 130kts
07-Oct-20 13:30 35.110078 -120.668526 331 10048ft 130kts
07-Oct-20 13:31 35.141349 -120.691133 331 10049ft 130kts
07-Oct-20 13:32 35.172613 -120.713759 331 10049ft 130kts
07-Oct-20 13:33 35.205752 -120.731877 340 10048ft 130kts
07-Oct-20 13:34 35.238539 -120.750770 333 10048ft 130kts
07-Oct-20 13:35 35.264773 -120.780814 311 10060ft 131kts
07-Oct-20 13:36 35.287179 -120.816346 308 10065ft 132kts
07-Oct-20 13:37 35.309476 -120.852221 311 10067ft 132kts
07-Oct-20 13:38 35.332255 -120.887569 311 10068ft 132kts
07-Oct-20 13:39 35.355010 -120.922914 311 10068ft 132kts
07-Oct-20 13:40 35.377808 -120.958279 311 10067ft 132kts
07-Oct-20 13:41 35.400777 -120.993605 311 10067ft 132kts
07-Oct-20 13:42 35.423619 -121.029198 310 10069ft 132kts
07-Oct-20 13:42 35.443886 -121.060252 305 10053ft 148kts
07-Oct-20 13:44 35.471568 -121.105027 310 10051ft 139kts
07-Oct-20 13:44 35.491280 -121.136238 310 10045ft 139kts
07-Oct-20 13:45 35.515142 -121.173791 310 10042ft 139kts
07-Oct-20 13:46 35.539046 -121.211207 310 10041ft 139kts
07-Oct-20 13:47 35.562952 -121.248462 310 10042ft 139kts
07-Oct-20 13:48 35.587099 -121.285966 310 10048ft 140kts
07-Oct-20 13:49 35.611359 -121.323590 310 10050ft 140kts
07-Oct-20 13:50 35.637440 -121.358757 330 10049ft 138kts
07-Oct-20 13:51 35.671959 -121.380069 335 10062ft 138kts
07-Oct-20 13:52 35.707429 -121.397764 341 10067ft 137kts
07-Oct-20 13:53 35.743653 -121.413261 343 10066ft 137kts
07-Oct-20 13:54 35.779359 -121.430626 337 10065ft 138kts
07-Oct-20 13:55 35.814436 -121.450684 337 10065ft 138kts
07-Oct-20 13:56 35.849510 -121.470825 337 10065ft 139kts
07-Oct-20 13:57 35.884620 -121.491087 337 10062ft 140kts
07-Oct-20 13:58 35.920163 -121.511679 337 10065ft 141kts
07-Oct-20 13:59 35.956481 -121.530500 343 10065ft 141kts
07-Oct-20 14:00 35.993932 -121.546434 343 10065ft 142kts
07-Oct-20 14:01 36.031623 -121.562398 343 10065ft 143kts
07-Oct-20 14:02 36.069365 -121.578269 343 10065ft 144kts
07-Oct-20 14:03 36.106563 -121.597516 336 10066ft 145kts
07-Oct-20 14:04 36.142110 -121.621236 328 10064ft 146kts
07-Oct-20 14:05 36.178359 -121.643990 333 10064ft 146kts
07-Oct-20 14:06 36.211698 -121.672979 324 10066ft 146kts
07-Oct-20 14:07 36.245002 -121.702569 324 10066ft 146kts
07-Oct-20 14:08 36.278082 -121.732048 324 10067ft 146kts
07-Oct-20 14:09 36.311176 -121.761633 324 10066ft 146kts
07-Oct-20 14:10 36.344288 -121.791286 324 10066ft 146kts
07-Oct-20 14:11 36.377434 -121.820895 324 10066ft 146kts
07-Oct-20 14:12 36.410124 -121.851036 313 10063ft 146kts
07-Oct-20 14:13 36.438569 -121.887600 313 9475ft 143kts
07-Oct-20 14:14 36.466575 -121.923131 312 8872ft 142kts
07-Oct-20 14:15 36.494386 -121.957484 313 8277ft 141kts
07-Oct-20 14:16 36.522516 -121.992064 313 7610ft 142kts
07-Oct-20 14:17 36.550242 -122.025965 314 6677ft 137kts
07-Oct-20 14:18 36.577092 -122.058623 314 5715ft 128kts
07-Oct-20 14:19 36.604540 -122.088930 317 4982ft 131kts
07-Oct-20 14:20 36.630656 -122.122242 317 4158ft 135kts
07-Oct-20 14:21 36.655735 -122.103220 78 3514ft 131kts
07-Oct-20 14:22 36.656405 -122.058753 108 2931ft 127kts
07-Oct-20 14:23 36.647095 -122.019831 113 2847ft 112kts
07-Oct-20 14:24 36.633823 -121.982016 115 2380ft 129kts
07-Oct-20 14:25 36.619760 -121.940907 115 1674ft 128kts
07-Oct-20 14:26 36.606374 -121.901464 110 993ft 96kts
07-Oct-20 14:27 36.596319 -121.872087 110 519ft 93kts
07-Oct-20 14:28 36.588707 -121.849374 111 208ft 17kts
07-Oct-20 14:29 36.587036 -121.848517 224 208ft 2kts
07-Oct-20 14:30 36.587036 -121.848517 224 208ft 2kts
07-Oct-20 14:31 36.587036 -121.848517 224 208ft 2kts
07-Oct-20 14:32 36.587036 -121.848517 224 208ft 2kts
07-Oct-20 14:33 36.587036 -121.848517 224 208ft 2kts
07-Oct-20 14:34 36.587036 -121.848517 224 208ft 2kts
07-Oct-20 14:35 36.587036 -121.848517 224 208ft 2kts
07-Oct-20 14:36 36.587036 -121.848517 224 208ft 2kts
07-Oct-20 14:37 36.587036 -121.848517 224 208ft 2kts
07-Oct-20 14:38 36.587036 -121.848517 224 208ft 2kts
07-Oct-20 14:39 36.587036 -121.848517 224 208ft 2kts
07-Oct-20 14:40 36.587036 -121.848517 224 208ft 2kts
07-Oct-20 14:41 36.587036 -121.848517 224 208ft 2kts
07-Oct-20 14:42 36.587036 -121.848517 224 208ft 2kts

Navigation Log

Ident Type
Flight plan parsing failed, navigation log unavailable